Time;durP1;ratioP1;P1;durP2;ratioP2;P2;SDS_P1;SDS_P2;PMS_P1;PMS_P2;Temp;Humidity;BMP_temperature;BMP_pressure;BME280_temperature;BME280_humidity;BME280_pressure;Samples;Min_cycle;Max_cycle;Signal;HPM_P1;HPM_P2
2021/08/31 00:01:15;;;;;;;12.65;9.40;;;;;;;11.86;100.00;99829.97;6237269;28;20047;-81
2021/08/31 00:04:16;;;;;;;12.98;9.23;;;;;;;11.76;100.00;99823.72;6237020;28;20068;-88
2021/08/31 00:07:17;;;;;;;12.60;9.73;;;;;;;11.81;100.00;99828.63;6253291;28;20048;-80
2021/08/31 00:10:18;;;;;;;13.95;8.90;;;;;;;11.80;100.00;99824.34;6252898;28;20131;-83
2021/08/31 00:13:18;;;;;;;13.15;9.27;;;;;;;11.75;100.00;99819.41;6237187;28;20047;-90
2021/08/31 00:16:20;;;;;;;14.65;9.30;;;;;;;11.76;100.00;99825.50;6236154;28;20095;-83
2021/08/31 00:19:20;;;;;;;13.18;9.50;;;;;;;11.72;100.00;99824.06;6252425;28;20064;-82
2021/08/31 00:22:21;;;;;;;12.35;9.80;;;;;;;11.67;100.00;99821.72;6252379;28;20115;-82
2021/08/31 00:25:29;;;;;;;11.10;9.15;;;;;;;11.63;100.00;99828.09;6270626;28;20041;-90
2021/08/31 00:28:30;;;;;;;12.52;9.02;;;;;;;11.64;100.00;99824.56;6253072;28;20052;-89
2021/08/31 00:31:30;;;;;;;14.45;8.75;;;;;;;11.66;100.00;99825.31;6236061;28;20047;-89
2021/08/31 00:34:31;;;;;;;12.63;9.38;;;;;;;11.56;100.00;99825.09;6236727;28;20048;-82
2021/08/31 00:37:33;;;;;;;13.40;9.93;;;;;;;11.53;100.00;99834.91;6268771;28;20499;-82
2021/08/31 00:40:34;;;;;;;11.83;8.97;;;;;;;11.53;100.00;99841.00;6268558;28;20060;-82
2021/08/31 00:43:49;;;;;;;15.00;8.93;;;;;;;11.54;100.00;99840.03;6268721;28;20094;-83
2021/08/31 00:46:52;;;;;;;15.43;9.38;;;;;;;11.56;100.00;99834.72;6269103;28;20128;-89
2021/08/31 00:49:53;;;;;;;11.52;8.80;;;;;;;11.53;100.00;99838.38;6252470;28;20044;-83
2021/08/31 00:52:53;;;;;;;13.38;9.57;;;;;;;11.52;100.00;99831.47;6251994;28;20064;-82
2021/08/31 00:55:54;;;;;;;10.50;8.77;;;;;;;11.48;100.00;99827.38;6269865;28;20106;-82
2021/08/31 00:58:55;;;;;;;12.75;9.52;;;;;;;11.47;100.00;99829.19;6268548;28;20041;-82
2021/08/31 01:01:56;;;;;;;11.98;9.35;;;;;;;11.56;100.00;99825.09;6252053;28;20094;-82
2021/08/31 01:04:57;;;;;;;12.82;9.10;;;;;;;11.53;100.00;99832.28;6252559;28;20522;-90
2021/08/31 01:07:58;;;;;;;14.90;8.82;;;;;;;11.45;100.00;99831.06;6236532;28;20364;-83
2021/08/31 01:11:00;;;;;;;13.65;9.52;;;;;;;11.44;100.00;99837.22;6240236;28;20091;-82
2021/08/31 01:14:01;;;;;;;10.98;9.43;;;;;;;11.45;100.00;99836.28;6256885;28;20041;-83
2021/08/31 01:17:02;;;;;;;11.13;9.43;;;;;;;11.39;100.00;99830.66;6256530;28;20427;-83
2021/08/31 01:20:03;;;;;;;12.27;9.38;;;;;;;11.37;100.00;99828.13;6240686;28;20064;-90
2021/08/31 01:23:05;;;;;;;10.90;8.95;;;;;;;11.37;100.00;99835.97;6289770;28;20119;-82
2021/08/31 01:26:06;;;;;;;11.43;8.65;;;;;;;11.40;100.00;99837.53;6256198;28;20225;-82
2021/08/31 01:29:06;;;;;;;14.05;9.57;;;;;;;11.37;100.00;99841.19;6272779;28;20041;-82
2021/08/31 01:32:07;;;;;;;10.35;8.50;;;;;;;11.38;100.00;99839.41;6256186;28;20041;-83
2021/08/31 01:35:08;;;;;;;13.18;9.23;;;;;;;11.36;100.00;99828.22;6289943;28;20496;-89
2021/08/31 01:38:09;;;;;;;10.55;9.25;;;;;;;11.37;100.00;99837.75;6244913;28;20044;-90
2021/08/31 01:41:11;;;;;;;10.85;9.10;;;;;;;11.36;100.00;99847.34;6265199;28;20101;-91
2021/08/31 01:44:12;;;;;;;12.73;9.45;;;;;;;11.25;100.00;99845.47;6265533;28;20044;-90
2021/08/31 01:47:13;;;;;;;11.50;8.85;;;;;;;11.22;100.00;99845.69;6282034;28;20052;-90
2021/08/31 01:50:13;;;;;;;12.60;8.50;;;;;;;11.14;100.00;99834.03;6282022;28;20045;-90
2021/08/31 01:53:14;;;;;;;12.40;9.45;;;;;;;11.07;100.00;99826.63;6265342;28;20043;-90
2021/08/31 01:56:15;;;;;;;10.93;9.30;;;;;;;11.19;100.00;99837.22;6281749;28;20040;-90
2021/08/31 01:59:16;;;;;;;14.02;9.05;;;;;;;11.17;100.00;99836.47;6281625;28;20036;-90
2021/08/31 02:02:17;;;;;;;12.38;9.45;;;;;;;11.14;100.00;99834.91;6248491;28;20068;-89
2021/08/31 02:05:18;;;;;;;12.82;9.85;;;;;;;11.05;100.00;99827.66;6248327;28;20115;-91
2021/08/31 02:08:18;;;;;;;12.77;9.65;;;;;;;11.11;100.00;99840.31;6298870;28;20044;-92
2021/08/31 02:11:19;;;;;;;11.93;9.15;;;;;;;11.03;100.00;99843.44;6231454;28;20147;-82
2021/08/31 02:14:20;;;;;;;12.15;9.88;;;;;;;11.04;100.00;99849.50;6263267;28;20060;-83
2021/08/31 02:17:21;;;;;;;13.48;9.98;;;;;;;10.96;100.00;99844.78;6279829;28;20099;-83
2021/08/31 02:20:21;;;;;;;11.15;9.35;;;;;;;10.99;100.00;99848.97;6263211;28;20060;-83
2021/08/31 02:23:22;;;;;;;10.82;9.60;;;;;;;11.00;100.00;99854.09;6263327;28;20045;-83
2021/08/31 02:26:23;;;;;;;14.23;9.68;;;;;;;11.03;100.00;99853.88;6262922;28;20060;-83
2021/08/31 02:29:25;;;;;;;11.18;9.20;;;;;;;10.98;100.00;99848.13;6279720;28;20149;-83
2021/08/31 02:32:26;;;;;;;14.15;10.20;;;;;;;10.99;100.00;99843.75;6246713;28;20036;-82
2021/08/31 02:35:27;;;;;;;14.95;9.57;;;;;;;11.02;100.00;99840.94;6279684;28;20048;-83
2021/08/31 02:38:28;;;;;;;11.20;9.50;;;;;;;11.06;100.00;99842.41;6279011;28;20503;-83
2021/08/31 02:41:34;;;;;;;13.35;9.75;;;;;;;11.14;100.00;99841.88;6249242;28;20273;-92
2021/08/31 02:44:34;;;;;;;14.55;9.60;;;;;;;11.14;100.00;99849.72;6246783;28;20047;-83
2021/08/31 02:47:35;;;;;;;13.27;9.80;;;;;;;11.12;100.00;99847.22;6280262;28;20041;-90
2021/08/31 02:50:36;;;;;;;17.00;10.80;;;;;;;11.07;100.00;99839.69;6280231;28;20037;-91
2021/08/31 02:53:37;;;;;;;14.30;10.88;;;;;;;11.07;100.00;99844.06;6246770;28;20117;-83
2021/08/31 02:56:37;;;;;;;14.35;10.45;;;;;;;11.12;100.00;99834.16;6279502;28;20048;-91
2021/08/31 02:59:38;;;;;;;15.55;10.43;;;;;;;11.17;100.00;99839.09;6280295;28;20435;-91
2021/08/31 03:02:39;;;;;;;13.15;11.13;;;;;;;11.17;100.00;99845.13;6263433;28;20118;-90
2021/08/31 03:05:40;;;;;;;13.35;11.32;;;;;;;11.21;100.00;99840.56;6278768;28;20044;-82
2021/08/31 03:08:40;;;;;;;13.50;11.10;;;;;;;11.18;100.00;99841.59;6278635;28;20467;-83
2021/08/31 03:11:41;;;;;;;13.45;11.10;;;;;;;11.22;100.00;99836.97;6262079;28;20139;-83
2021/08/31 03:14:43;;;;;;;15.48;12.27;;;;;;;11.12;100.00;99839.41;6295646;28;20041;-90
2021/08/31 03:17:43;;;;;;;18.42;12.10;;;;;;;11.02;100.00;99836.56;6278713;28;20036;-83
2021/08/31 03:20:44;;;;;;;19.83;12.70;;;;;;;10.96;100.00;99844.78;6279464;28;20044;-91
2021/08/31 03:23:45;;;;;;;17.77;12.07;;;;;;;10.95;100.00;99843.09;6297165;28;20036;-83
2021/08/31 03:26:46;;;;;;;15.63;11.23;;;;;;;10.95;100.00;99853.53;6245662;28;20083;-90
2021/08/31 03:29:47;;;;;;;16.73;11.87;;;;;;;10.94;100.00;99851.88;6279210;28;20049;-90
2021/08/31 03:32:48;;;;;;;14.52;11.02;;;;;;;10.98;100.00;99844.69;6245065;28;20045;-83
2021/08/31 03:35:49;;;;;;;19.92;11.27;;;;;;;10.86;100.00;99843.72;6296684;28;20072;-91
2021/08/31 03:38:50;;;;;;;18.60;11.10;;;;;;;10.73;100.00;99848.91;6279218;28;20056;-91
2021/08/31 03:41:51;;;;;;;14.55;10.93;;;;;;;10.77;100.00;99847.78;6296053;28;20506;-91
2021/08/31 03:44:52;;;;;;;14.60;11.13;;;;;;;10.75;100.00;99843.56;6246020;28;20049;-91
2021/08/31 03:47:53;;;;;;;14.88;10.93;;;;;;;10.74;100.00;99847.13;6245653;28;20049;-91
2021/08/31 03:50:53;;;;;;;16.40;10.98;;;;;;;10.78;100.00;99848.59;6245925;28;20041;-91
2021/08/31 03:53:54;;;;;;;13.70;10.05;;;;;;;10.89;100.00;99849.59;6262253;28;20104;-92
2021/08/31 03:56:55;;;;;;;16.85;10.30;;;;;;;10.93;100.00;99854.59;6294643;28;20047;-83
2021/08/31 03:59:56;;;;;;;14.02;9.80;;;;;;;10.95;100.00;99857.94;6244409;28;20127;-82
2021/08/31 04:02:57;;;;;;;17.88;10.20;;;;;;;10.95;100.00;99837.88;6260743;28;20090;-83
2021/08/31 04:05:57;;;;;;;11.73;9.90;;;;;;;10.97;100.00;99850.84;6277317;28;20127;-82
2021/08/31 04:08:58;;;;;;;16.00;10.10;;;;;;;11.09;100.00;99839.59;6260761;28;20037;-82
2021/08/31 04:11:59;;;;;;;16.02;10.40;;;;;;;11.09;100.00;99847.41;6244474;28;20506;-83
2021/08/31 04:15:00;;;;;;;13.50;10.30;;;;;;;11.09;100.00;99861.31;6293796;28;20106;-82
2021/08/31 04:18:00;;;;;;;13.25;10.35;;;;;;;11.19;100.00;99868.53;6260875;28;20123;-82
2021/08/31 04:21:01;;;;;;;10.95;9.40;;;;;;;11.22;100.00;99874.41;6260951;28;20052;-89
2021/08/31 04:24:03;;;;;;;13.95;9.85;;;;;;;11.18;100.00;99872.94;6245094;28;20455;-89
2021/08/31 04:27:04;;;;;;;12.95;10.63;;;;;;;11.15;100.00;99872.28;6295746;28;20477;-89
2021/08/31 04:30:06;;;;;;;17.17;11.00;;;;;;;11.30;100.00;99873.88;6262136;28;20043;-91
2021/08/31 04:33:07;;;;;;;18.53;10.33;;;;;;;11.26;100.00;99868.03;6262601;28;20365;-90
2021/08/31 04:36:08;;;;;;;14.30;10.20;;;;;;;11.26;100.00;99865.44;6261973;28;20045;-89
2021/08/31 04:39:08;;;;;;;14.98;9.88;;;;;;;11.35;100.00;99873.59;6260432;28;20056;-82
2021/08/31 04:42:09;;;;;;;15.23;10.60;;;;;;;11.46;100.00;99868.47;6227612;28;20106;-88
2021/08/31 04:45:10;;;;;;;13.00;10.15;;;;;;;11.51;100.00;99866.38;6282916;28;20123;-89
2021/08/31 04:48:11;;;;;;;19.73;10.77;;;;;;;11.47;100.00;99857.09;6266263;28;20060;-90
2021/08/31 04:51:12;;;;;;;14.63;10.82;;;;;;;11.53;100.00;99861.91;6266293;28;20051;-89
2021/08/31 04:54:13;;;;;;;15.00;11.27;;;;;;;11.56;100.00;99856.44;6249703;28;20445;-87
2021/08/31 04:57:14;;;;;;;14.00;10.23;;;;;;;11.55;100.00;99846.09;6266697;28;20049;-90
2021/08/31 05:00:15;;;;;;;13.88;10.93;;;;;;;11.67;100.00;99855.72;6282430;28;20179;-80
2021/08/31 05:03:16;;;;;;;16.92;11.43;;;;;;;11.81;100.00;99867.84;6281835;28;20100;-89
2021/08/31 05:06:17;;;;;;;17.05;11.93;;;;;;;11.88;100.00;99853.38;6298554;28;20044;-80
2021/08/31 05:09:17;;;;;;;14.73;11.68;;;;;;;11.89;100.00;99855.94;6265499;28;20041;-89
2021/08/31 05:12:18;;;;;;;14.95;12.98;;;;;;;11.99;100.00;99858.75;6249197;28;20048;-88
2021/08/31 05:15:19;;;;;;;17.10;12.95;;;;;;;12.04;100.00;99856.63;6248242;28;20056;-88
2021/08/31 05:18:20;;;;;;;15.05;13.45;;;;;;;12.14;100.00;99858.59;6249103;28;20426;-90
2021/08/31 05:21:21;;;;;;;16.15;13.45;;;;;;;12.17;100.00;99863.59;6248389;28;20045;-81
2021/08/31 05:24:21;;;;;;;15.43;11.80;;;;;;;12.30;100.00;99870.50;6248028;28;20064;-80
2021/08/31 05:27:23;;;;;;;14.50;12.05;;;;;;;12.42;100.00;99878.44;6280867;28;20044;-80
2021/08/31 05:30:23;;;;;;;15.03;12.27;;;;;;;12.53;100.00;99877.66;6298683;28;20174;-80
2021/08/31 05:33:24;;;;;;;13.88;10.88;;;;;;;12.61;100.00;99870.06;6248216;28;20036;-88
2021/08/31 05:36:27;;;;;;;19.30;12.60;;;;;;;12.65;100.00;99866.28;6248407;28;20146;-80
2021/08/31 05:39:33;;;;;;;13.70;11.45;;;;;;;12.75;100.00;99874.31;6247872;28;20040;-80
2021/08/31 05:42:34;;;;;;;12.88;11.27;;;;;;;12.85;100.00;99875.31;6263248;28;20481;-80
2021/08/31 05:45:34;;;;;;;15.70;12.02;;;;;;;12.85;100.00;99870.09;6262584;28;20055;-80
2021/08/31 05:48:35;;;;;;;18.33;11.68;;;;;;;12.88;100.00;99869.84;6262943;28;20041;-90
2021/08/31 05:51:36;;;;;;;14.00;12.27;;;;;;;12.95;100.00;99885.94;6230016;28;20474;-80
2021/08/31 05:54:37;;;;;;;14.45;12.50;;;;;;;12.99;100.00;99883.00;6261996;28;20040;-79
2021/08/31 05:57:37;;;;;;;14.73;12.82;;;;;;;13.07;100.00;99885.88;6245798;28;20049;-80
2021/08/31 06:00:38;;;;;;;16.33;13.00;;;;;;;13.15;100.00;99887.91;6279015;28;20041;-79
2021/08/31 06:03:39;;;;;;;19.13;12.32;;;;;;;13.24;100.00;99889.00;6278859;28;20048;-89
2021/08/31 06:06:40;;;;;;;22.77;12.20;;;;;;;13.28;100.00;99878.22;6296610;28;20046;-79
2021/08/31 06:09:42;;;;;;;15.27;12.30;;;;;;;13.39;100.00;99887.06;6245901;28;20490;-79
2021/08/31 06:12:42;;;;;;;16.63;12.93;;;;;;;13.45;100.00;99881.38;6278820;28;20041;-89
2021/08/31 06:15:43;;;;;;;17.88;12.30;;;;;;;13.48;100.00;99881.13;6296796;28;20091;-89
2021/08/31 06:18:44;;;;;;;15.77;11.90;;;;;;;13.53;100.00;99871.13;6262120;28;20036;-79
2021/08/31 06:21:45;;;;;;;14.52;11.85;;;;;;;13.49;100.00;99873.16;6261987;28;20037;-79
2021/08/31 06:24:46;;;;;;;14.23;12.05;;;;;;;13.48;100.00;99868.84;6245399;28;20071;-78
2021/08/31 06:27:47;;;;;;;14.13;11.55;;;;;;;13.52;100.00;99868.63;6261969;28;20062;-88
2021/08/31 06:30:47;;;;;;;16.17;11.63;;;;;;;13.52;100.00;99877.31;6295093;28;20052;-89
2021/08/31 06:33:48;;;;;;;18.80;12.05;;;;;;;13.55;100.00;99871.84;6295029;28;20124;-88
2021/08/31 06:36:49;;;;;;;14.80;11.88;;;;;;;13.60;100.00;99879.38;6245537;28;20692;-79
2021/08/31 06:39:50;;;;;;;14.80;11.82;;;;;;;13.66;100.00;99877.09;6220776;28;1191042;-79
2021/08/31 06:42:52;;;;;;;14.88;11.50;;;;;;;13.63;100.00;99879.97;6246411;28;20051;-89
2021/08/31 06:45:52;;;;;;;20.55;11.98;;;;;;;13.74;100.00;99881.75;6295922;28;20078;-90
2021/08/31 06:48:53;;;;;;;17.20;11.70;;;;;;;13.86;100.00;99883.44;6296010;28;20040;-87
2021/08/31 06:51:54;;;;;;;13.82;12.30;;;;;;;13.88;100.00;99878.09;6295578;28;20068;-89
2021/08/31 06:54:55;;;;;;;15.43;11.80;;;;;;;13.90;100.00;99878.81;6296720;28;20084;-88
2021/08/31 06:57:57;;;;;;;15.88;12.73;;;;;;;13.89;100.00;99885.81;6295552;28;20040;-89
2021/08/31 07:00:58;;;;;;;16.30;12.48;;;;;;;13.96;100.00;99886.19;6296736;28;20044;-88
2021/08/31 07:03:59;;;;;;;15.10;12.35;;;;;;;14.03;100.00;99884.75;6262325;28;20490;-80
2021/08/31 07:07:00;;;;;;;13.82;12.32;;;;;;;14.32;100.00;99894.75;6277708;28;20033;-79
2021/08/31 07:10:01;;;;;;;23.05;12.00;;;;;;;14.65;100.00;99895.66;6278520;28;20071;-86
2021/08/31 07:13:02;;;;;;;16.27;12.20;;;;;;;14.95;100.00;99910.75;6278619;28;20045;-79
2021/08/31 07:16:03;;;;;;;13.38;11.90;;;;;;;15.01;100.00;99891.00;6296098;28;20041;-78
2021/08/31 07:19:03;;;;;;;16.25;12.88;;;;;;;15.18;100.00;99889.63;6296033;28;20044;-78
2021/08/31 07:22:04;;;;;;;19.15;12.73;;;;;;;15.39;100.00;99882.56;6278390;28;20115;-78
2021/08/31 07:25:06;;;;;;;14.13;11.60;;;;;;;15.54;100.00;99879.59;6295740;28;20041;-79
2021/08/31 07:28:07;;;;;;;12.65;11.20;;;;;;;15.59;100.00;99887.97;6261738;28;20041;-81
2021/08/31 07:31:08;;;;;;;12.77;11.45;;;;;;;15.86;100.00;99896.16;6261449;28;20125;-85
2021/08/31 07:34:09;;;;;;;12.80;11.25;;;;;;;16.08;100.00;99892.50;6278094;28;20040;-85
2021/08/31 07:37:10;;;;;;;13.90;11.32;;;;;;;16.45;100.00;99893.69;6244834;28;20482;-85
2021/08/31 07:40:11;;;;;;;11.02;9.82;;;;;;;16.72;100.00;99901.81;6252982;28;20045;-84
2021/08/31 07:43:12;;;;;;;10.27;9.23;;;;;;;16.89;100.00;99897.69;6269661;28;20045;-85
2021/08/31 07:46:13;;;;;;;10.43;8.13;;;;;;;17.11;100.00;99893.94;6220132;28;20052;-80
2021/08/31 07:49:14;;;;;;;12.35;9.30;;;;;;;17.14;100.00;99894.66;6253080;28;20041;-80
2021/08/31 07:52:15;;;;;;;9.52;8.23;;;;;;;16.81;100.00;99900.19;6269345;28;20487;-78
2021/08/31 07:55:16;;;;;;;10.02;8.60;;;;;;;16.90;100.00;99893.25;6252734;28;20148;-80
2021/08/31 07:58:17;;;;;;;8.80;7.88;;;;;;;17.04;100.00;99899.91;6236391;28;20118;-80
2021/08/31 08:01:18;;;;;;;11.80;8.73;;;;;;;17.11;99.80;99896.59;6270476;28;20480;-77
2021/08/31 08:04:18;;;;;;;11.77;7.68;;;;;;;17.29;100.00;99898.50;6252616;28;20041;-79
2021/08/31 08:07:19;;;;;;;9.20;7.20;;;;;;;17.26;98.99;99896.16;6236184;28;20049;-78
2021/08/31 08:10:20;;;;;;;13.38;7.05;;;;;;;17.03;96.77;99887.72;6269121;28;20037;-81
2021/08/31 08:13:21;;;;;;;10.48;6.88;;;;;;;17.30;92.65;99882.53;6269036;28;20037;-80
2021/08/31 08:16:22;;;;;;;11.20;6.78;;;;;;;17.50;92.63;99879.84;6268990;28;20060;-79
2021/08/31 08:19:22;;;;;;;8.13;6.85;;;;;;;17.71;89.60;99882.31;6235997;28;20047;-80
2021/08/31 08:22:23;;;;;;;9.45;6.97;;;;;;;17.98;91.04;99884.19;6268836;28;20049;-80
2021/08/31 08:25:24;;;;;;;7.28;6.25;;;;;;;18.05;85.17;99889.72;6268766;28;20037;-81
2021/08/31 08:28:25;;;;;;;7.70;6.47;;;;;;;18.06;81.40;99889.59;6268974;28;20041;-80
2021/08/31 08:31:26;;;;;;;10.43;6.60;;;;;;;18.25;82.91;99883.38;6236073;28;20052;-81
2021/08/31 08:34:27;;;;;;;11.70;6.70;;;;;;;18.40;84.63;99882.88;6252261;28;20041;-82
2021/08/31 08:37:28;;;;;;;9.75;6.82;;;;;;;18.59;82.04;99881.91;6252062;28;20484;-86
2021/08/31 08:40:31;;;;;;;7.72;6.18;;;;;;;18.84;80.16;99877.72;6235973;28;20495;-89
2021/08/31 08:43:36;;;;;;;11.00;6.60;;;;;;;18.96;81.70;99886.25;6253051;28;20045;-90
2021/08/31 08:46:37;;;;;;;6.88;6.10;;;;;;;19.17;80.19;99884.16;6252340;28;20041;-88
2021/08/31 08:49:38;;;;;;;7.93;5.60;;;;;;;19.20;76.17;99878.53;6236343;28;20068;-89
2021/08/31 08:52:39;;;;;;;10.30;6.75;;;;;;;19.34;78.67;99871.88;6252751;28;20059;-90
2021/08/31 08:55:40;;;;;;;10.68;5.78;;;;;;;19.44;76.96;99875.25;6236377;28;20044;-92
2021/08/31 08:58:41;;;;;;;10.43;5.90;;;;;;;19.65;76.49;99871.41;6253227;28;20044;-89
2021/08/31 09:01:47;;;;;;;7.70;5.90;;;;;;;19.78;77.02;99877.13;6252645;28;20052;-87
2021/08/31 09:04:49;;;;;;;6.90;5.88;;;;;;;19.87;71.88;99870.91;6268907;28;20119;-91
2021/08/31 09:07:50;;;;;;;6.22;5.60;;;;;;;20.05;75.94;99873.44;6251866;28;20037;-89
2021/08/31 09:10:51;;;;;;;9.77;5.60;;;;;;;20.15;75.58;99867.19;6235315;28;20060;-81
2021/08/31 09:14:12;;;;;;;8.77;5.40;;;;;;;20.36;76.66;99877.34;6251828;28;20033;-82
2021/08/31 09:17:14;;;;;;;9.20;5.00;;;;;;;20.44;72.19;99867.59;6269255;28;20306;-85
2021/08/31 09:20:15;;;;;;;5.70;4.43;;;;;;;20.53;68.33;99861.34;6235773;28;20142;-82
2021/08/31 09:23:29;;;;;;;6.45;3.90;;;;;;;20.70;70.77;99869.34;6251830;28;20131;-82
2021/08/31 09:26:36;;;;;;;6.32;4.72;;;;;;;20.47;68.84;99848.75;6269477;28;20048;-82
2021/08/31 09:29:41;;;;;;;8.85;4.50;;;;;;;20.73;70.42;99850.47;6286507;28;20041;-83
2021/08/31 09:33:07;;;;;;;6.20;4.35;;;;;;;20.75;67.98;99852.94;6273052;28;20037;-87
2021/08/31 09:36:10;;;;;;;4.53;3.70;;;;;;;20.93;65.94;99840.38;6273565;28;20091;-91
2021/08/31 09:39:13;;;;;;;5.18;4.28;;;;;;;21.01;65.59;99844.84;6274098;28;20136;-91
2021/08/31 09:42:14;;;;;;;4.78;4.25;;;;;;;21.04;65.83;99840.00;6257308;28;20044;-90
2021/08/31 09:45:21;;;;;;;6.57;3.90;;;;;;;21.27;69.80;99839.34;6241150;28;20041;-92
2021/08/31 09:48:23;;;;;;;4.82;4.30;;;;;;;21.27;65.28;99842.00;6273847;28;20045;-90
2021/08/31 09:51:23;;;;;;;7.85;4.03;;;;;;;21.38;64.77;99846.97;6273548;28;20457;-87
2021/08/31 09:54:24;;;;;;;4.27;3.37;;;;;;;20.83;66.63;99837.03;6241090;28;20037;-93
2021/08/31 09:57:34;;;;;;;5.43;3.73;;;;;;;20.81;64.33;99839.03;6257227;28;20053;-92
2021/08/31 10:00:35;;;;;;;5.75;3.70;;;;;;;21.45;66.19;99836.53;6290177;28;20403;-91
2021/08/31 10:03:38;;;;;;;6.50;3.28;;;;;;;21.00;63.54;99841.38;6273822;28;20037;-91
2021/08/31 10:06:40;;;;;;;4.72;3.75;;;;;;;20.75;63.63;99827.25;6273878;28;20060;-88
2021/08/31 10:09:41;;;;;;;;;;;;;;;20.87;66.36;99831.25;6273993;28;20049;-86
2021/08/31 10:12:42;;;;;;;4.35;3.30;;;;;;;21.39;63.29;99819.41;6257421;28;20371;-93
2021/08/31 10:15:46;;;;;;;6.10;3.35;;;;;;;21.79;65.53;99827.47;6273392;28;20044;-91
2021/08/31 10:18:47;;;;;;;5.45;3.00;;;;;;;21.63;60.18;99823.88;6273110;28;20044;-89
2021/08/31 10:21:48;;;;;;;4.33;3.10;;;;;;;21.89;63.15;99823.63;6273951;28;20483;-91
2021/08/31 10:24:50;;;;;;;4.97;3.00;;;;;;;21.72;60.27;99817.53;6273470;28;20037;-92
2021/08/31 10:27:53;;;;;;;4.68;2.90;;;;;;;22.41;56.36;99816.88;6274624;28;20048;-86
2021/08/31 10:30:56;;;;;;;3.67;2.80;;;;;;;22.46;56.99;99816.34;6290508;28;20419;-89
2021/08/31 10:33:56;;;;;;;2.28;2.05;;;;;;;22.40;55.08;99809.91;6273103;28;20040;-90
2021/08/31 10:37:05;;;;;;;2.17;1.97;;;;;;;22.35;53.56;99814.94;6239926;28;20045;-90
2021/08/31 10:40:06;;;;;;;2.50;1.75;;;;;;;21.49;56.48;99811.28;6293355;28;20060;-95
2021/08/31 10:43:13;;;;;;;3.20;1.65;;;;;;;21.79;57.58;99811.53;6263727;28;20043;-84
2021/08/31 10:46:14;;;;;;;4.32;1.80;;;;;;;22.03;56.11;99802.63;6281157;28;20036;-90
2021/08/31 10:49:15;;;;;;;1.60;1.50;;;;;;;21.66;58.09;99802.31;6264375;28;20086;-90
2021/08/31 10:52:16;;;;;;;2.17;1.90;;;;;;;22.29;56.33;99800.50;6247598;28;20277;-92
2021/08/31 10:55:29;;;;;;;2.20;2.00;;;;;;;22.03;56.74;99805.28;6246848;28;20469;-92
2021/08/31 10:58:41;;;;;;;2.42;1.65;;;;;;;21.55;56.20;99801.84;6315804;28;20119;-92
2021/08/31 11:01:42;;;;;;;2.55;1.80;;;;;;;21.24;56.29;99797.22;6281405;28;20044;-94
2021/08/31 11:04:43;;;;;;;2.55;1.70;;;;;;;20.99;55.99;99805.22;6297085;28;20037;-87
2021/08/31 11:07:49;;;;;;;8.37;1.60;;;;;;;21.38;57.13;99801.84;6279700;28;20036;-92
2021/08/31 11:10:50;;;;;;;2.80;1.60;;;;;;;21.14;56.62;99794.75;6280186;28;20032;-91
2021/08/31 11:13:55;;;;;;;5.20;1.70;;;;;;;20.97;57.02;99801.91;6263094;28;20476;-91
2021/08/31 11:16:56;;;;;;;1.67;1.58;;;;;;;20.70;57.98;99795.94;6279892;28;20139;-91
2021/08/31 11:20:32;;;;;;;5.37;1.90;;;;;;;20.50;59.44;99811.31;6280077;28;20045;-92
2021/08/31 11:23:34;;;;;;;2.42;1.90;;;;;;;20.33;60.90;99807.81;6258631;28;20052;-88
2021/08/31 11:26:34;;;;;;;2.08;1.88;;;;;;;20.30;59.74;99807.28;6270375;28;20146;-90
2021/08/31 11:29:35;;;;;;;1.70;1.60;;;;;;;20.17;58.24;99796.34;6271353;28;20036;-89
2021/08/31 11:32:36;;;;;;;2.60;1.80;;;;;;;20.08;59.24;99798.97;6287957;28;20082;-89
2021/08/31 11:35:37;;;;;;;3.53;2.20;;;;;;;20.15;60.45;99808.94;6304459;28;20449;-91
2021/08/31 11:38:39;;;;;;;3.03;2.20;;;;;;;19.96;65.67;99812.69;6270963;28;20078;-87
2021/08/31 11:41:41;;;;;;;;;;;;;;;19.89;70.37;99812.47;6322466;28;20410;-90
2021/08/31 11:44:56;;;;;;;4.72;1.70;;;;;;;19.98;65.98;99808.88;6304102;28;20014;-89
2021/08/31 11:47:57;;;;;;;3.90;1.95;;;;;;;20.05;66.17;99809.88;6303809;28;20405;-91
2021/08/31 11:50:58;;;;;;;1.77;1.67;;;;;;;20.06;63.20;99808.06;6302846;28;20040;-82
2021/08/31 11:54:04;;;;;;;3.65;1.88;;;;;;;20.07;63.63;99802.59;6318993;28;20516;-82
2021/08/31 11:57:07;;;;;;;2.47;1.77;;;;;;;20.11;64.86;99801.28;6298382;28;20045;-82
2021/08/31 12:00:12;;;;;;;2.83;2.05;;;;;;;20.22;62.55;99788.72;6288272;28;20045;-81
2021/08/31 12:03:30;;;;;;;5.32;1.98;;;;;;;20.37;59.85;99795.06;6303040;28;20528;-83
2021/08/31 12:06:30;;;;;;;5.03;2.38;;;;;;;20.44;61.26;99788.09;6285770;28;20528;-81
2021/08/31 12:09:31;;;;;;;2.43;2.00;;;;;;;20.80;63.64;99794.97;6260961;28;20040;-81
2021/08/31 12:12:33;;;;;;;4.53;2.63;;;;;;;20.90;60.31;99783.19;6277376;28;20109;-83
2021/08/31 12:15:34;;;;;;;5.40;2.17;;;;;;;21.01;59.21;99789.97;6295368;28;20056;-82
2021/08/31 12:18:34;;;;;;;2.80;2.10;;;;;;;20.96;57.48;99794.13;6261288;28;20042;-88
2021/08/31 12:21:35;;;;;;;5.13;1.77;;;;;;;20.83;59.62;99787.50;6245575;28;20427;-91
2021/08/31 12:24:38;;;;;;;2.17;1.90;;;;;;;20.71;55.30;99783.50;6265504;28;20059;-88
2021/08/31 12:27:45;;;;;;;5.13;2.20;;;;;;;20.75;57.98;99790.16;6287004;28;20482;-92
2021/08/31 12:30:47;;;;;;;3.15;2.30;;;;;;;21.40;57.20;99775.97;6295412;28;20048;-90
2021/08/31 12:33:48;;;;;;;3.90;2.42;;;;;;;21.81;55.32;99770.53;6278335;28;20114;-84
2021/08/31 12:36:49;;;;;;;3.97;2.22;;;;;;;22.24;56.53;99767.50;6277436;28;20044;-84
2021/08/31 12:40:10;;;;;;;4.03;2.50;;;;;;;22.55;57.49;99762.13;6274690;28;20541;-91
2021/08/31 12:43:11;;;;;;;3.60;2.25;;;;;;;22.87;56.70;99758.34;6309077;28;20044;-91
2021/08/31 12:46:22;;;;;;;4.95;2.30;;;;;;;22.30;52.74;99764.97;6269864;28;20036;-90
2021/08/31 12:49:32;;;;;;;2.58;2.38;;;;;;;22.15;54.37;99761.38;6286675;28;20044;-91
2021/08/31 12:52:35;;;;;;;2.60;2.28;;;;;;;22.14;57.79;99757.88;6302307;28;20047;-85
2021/08/31 12:55:36;;;;;;;3.30;2.10;;;;;;;22.30;58.61;99743.72;6261751;28;20044;-84
2021/08/31 12:58:41;;;;;;;5.60;2.65;;;;;;;22.42;54.88;99738.78;6260682;28;20041;-80
2021/08/31 13:02:03;;;;;;;3.55;2.35;;;;;;;21.94;54.56;99746.06;6261375;28;20061;-86
2021/08/31 13:05:14;;;;;;;;;;;;;;;21.75;57.29;99752.63;6280126;28;20496;-85
2021/08/31 13:08:14;;;;;;;3.85;2.17;;;;;;;21.66;56.89;99740.38;6291809;28;20287;-83
2021/08/31 13:11:15;;;;;;;2.30;2.10;;;;;;;21.75;58.39;99730.56;6273703;28;20055;-84
2021/08/31 13:14:19;;;;;;;3.10;2.17;;;;;;;22.07;59.12;99738.34;6273309;28;20054;-84
2021/08/31 13:17:20;;;;;;;4.57;2.38;;;;;;;22.38;57.91;99729.50;6306279;28;20131;-82
2021/08/31 13:20:20;;;;;;;4.17;1.87;;;;;;;22.29;57.79;99727.94;6264975;28;20041;-84
2021/08/31 13:23:21;;;;;;;2.40;2.20;;;;;;;21.97;55.86;99734.25;6248584;28;20060;-84
2021/08/31 13:26:23;;;;;;;3.93;2.10;;;;;;;21.68;57.54;99728.63;6264850;28;20039;-82
2021/08/31 13:29:24;;;;;;;3.08;2.10;;;;;;;21.40;57.18;99727.38;6298972;28;20048;-88
2021/08/31 13:32:25;;;;;;;3.97;2.28;;;;;;;21.41;57.73;99724.53;6281272;28;20109;-82
2021/08/31 13:35:26;;;;;;;3.97;2.00;;;;;;;21.49;58.21;99721.06;6248259;28;20463;-83
2021/08/31 13:38:27;;;;;;;2.37;2.17;;;;;;;21.40;59.26;99719.41;6281105;28;20049;-85
2021/08/31 13:41:31;;;;;;;4.13;2.37;;;;;;;21.45;59.57;99712.59;6281284;28;20040;-84
2021/08/31 13:44:35;;;;;;;2.60;1.77;;;;;;;21.40;56.66;99711.47;6271464;28;20032;-85
2021/08/31 13:47:36;;;;;;;2.20;1.73;;;;;;;21.23;58.30;99721.28;6289757;28;20505;-83
2021/08/31 13:50:37;;;;;;;1.83;1.73;;;;;;;21.01;59.12;99720.19;6289321;28;20050;-84
2021/08/31 13:53:38;;;;;;;2.00;1.80;;;;;;;20.83;59.76;99717.72;6289286;28;20473;-83
2021/08/31 13:56:39;;;;;;;3.97;2.10;;;;;;;20.76;59.58;99716.75;6272608;28;20048;-83
2021/08/31 13:59:39;;;;;;;4.63;2.07;;;;;;;20.80;57.64;99713.59;6289073;28;20048;-84
2021/08/31 14:02:40;;;;;;;2.23;1.70;;;;;;;20.91;58.28;99717.72;6288960;28;20115;-84